createdAt,value
2023-03-01T00:01:43.932Z,-0.30
2023-03-01T00:04:11.854Z,-0.30
2023-03-01T00:06:39.637Z,-0.30
2023-03-01T00:09:08.445Z,-0.30
2023-03-01T00:11:37.559Z,-0.20
2023-03-01T00:14:07.547Z,-0.20
2023-03-01T00:16:39.536Z,-0.30
2023-03-01T00:19:08.650Z,-0.30
2023-03-01T00:21:36.862Z,-0.30
2023-03-01T00:24:05.239Z,-0.30
2023-03-01T00:26:33.272Z,-0.20
2023-03-01T00:29:02.851Z,-0.30
2023-03-01T00:31:33.276Z,-0.30
2023-03-01T00:34:03.592Z,-0.40
2023-03-01T00:36:33.794Z,-0.50
2023-03-01T00:39:02.170Z,-0.50
2023-03-01T00:41:29.989Z,-0.60
2023-03-01T00:43:58.024Z,-0.60
2023-03-01T00:46:28.646Z,-0.60
2023-03-01T00:48:56.489Z,-0.70
2023-03-01T00:51:25.957Z,-0.70
2023-03-01T00:53:54.984Z,-0.80
2023-03-01T00:56:23.295Z,-0.80
2023-03-01T00:58:51.713Z,-0.90
2023-03-01T01:01:21.217Z,-0.90
2023-03-01T01:03:52.547Z,-1.00
2023-03-01T01:06:23.895Z,-0.90
2023-03-01T01:08:52.426Z,-0.90
2023-03-01T01:11:20.762Z,-0.80
2023-03-01T01:13:49.614Z,-0.80
2023-03-01T01:16:18.894Z,-0.70
2023-03-01T01:18:47.628Z,-0.60
2023-03-01T01:21:19.419Z,-0.60
2023-03-01T01:23:48.583Z,-0.60
2023-03-01T01:26:18.262Z,-0.50
2023-03-01T01:28:46.391Z,-0.50
2023-03-01T01:31:14.336Z,-0.50
2023-03-01T01:33:42.474Z,-0.50
2023-03-01T01:36:10.824Z,-0.50
2023-03-01T01:38:40.732Z,-0.60
2023-03-01T01:41:08.790Z,-0.60
2023-03-01T01:43:39.088Z,-0.60
2023-03-01T01:46:17.810Z,-0.70
2023-03-01T01:48:50.182Z,-0.70
2023-03-01T01:51:21.608Z,-0.80
2023-03-01T01:53:56.731Z,-0.80
2023-03-01T01:56:27.711Z,-0.80
2023-03-01T01:58:56.830Z,-0.80
2023-03-01T02:01:24.638Z,-0.80
2023-03-01T02:03:53.552Z,-0.90
2023-03-01T02:06:33.601Z,-1.00
2023-03-01T02:09:08.831Z,-1.00
2023-03-01T02:11:38.469Z,-1.10
2023-03-01T02:14:06.318Z,-1.10
2023-03-01T02:16:35.145Z,-1.10
2023-03-01T02:19:05.675Z,-1.10
2023-03-01T02:21:43.954Z,-1.10
2023-03-01T02:24:23.944Z,-1.00
2023-03-01T02:26:56.300Z,-1.00
2023-03-01T02:29:27.058Z,-0.80
2023-03-01T02:31:58.611Z,-0.80
2023-03-01T02:34:27.731Z,-0.70
2023-03-01T02:36:58.858Z,-0.60
2023-03-01T02:39:30.827Z,-0.60
2023-03-01T02:41:59.799Z,-0.60
2023-03-01T02:44:29.001Z,-0.70
2023-03-01T02:46:58.775Z,-0.80
2023-03-01T02:49:28.913Z,-0.80
2023-03-01T02:52:19.436Z,-0.90
2023-03-01T02:54:52.763Z,-0.90
2023-03-01T02:57:21.633Z,-1.00
2023-03-01T02:59:53.270Z,-1.10
2023-03-01T03:02:36.595Z,-1.20
2023-03-01T03:05:09.133Z,-1.30
2023-03-01T03:07:38.981Z,-1.40
2023-03-01T03:10:09.921Z,-1.50
2023-03-01T03:12:37.707Z,-1.60
2023-03-01T03:15:09.769Z,-1.60
2023-03-01T03:17:38.287Z,-1.70
2023-03-01T03:20:11.733Z,-1.80
2023-03-01T03:22:40.338Z,-1.90
2023-03-01T03:25:11.265Z,-1.80
2023-03-01T03:27:39.487Z,-1.90
2023-03-01T03:30:13.490Z,-1.90
2023-03-01T03:32:41.650Z,-1.90
2023-03-01T03:35:11.476Z,-1.90
2023-03-01T03:37:56.766Z,-1.90
2023-03-01T03:40:24.535Z,-1.70
2023-03-01T03:42:52.314Z,-1.60
2023-03-01T03:45:21.446Z,-1.50
2023-03-01T03:47:49.297Z,-1.50
2023-03-01T03:50:18.730Z,-1.60
2023-03-01T03:52:46.917Z,-1.60
2023-03-01T03:55:15.153Z,-1.50
2023-03-01T03:57:43.611Z,-1.40
2023-03-01T04:00:13.912Z,-1.30
2023-03-01T04:02:44.398Z,-1.30
2023-03-01T04:05:13.997Z,-1.30
2023-03-01T04:07:43.853Z,-1.30
2023-03-01T04:10:13.770Z,-1.30
2023-03-01T04:12:44.050Z,-1.30
2023-03-01T04:15:16.663Z,-1.30
2023-03-01T04:17:47.701Z,-1.20
2023-03-01T04:20:18.832Z,-1.20
2023-03-01T04:22:47.774Z,-1.20
2023-03-01T04:25:16.218Z,-1.20
2023-03-01T04:27:44.019Z,-1.30
2023-03-01T04:30:12.824Z,-1.40
2023-03-01T04:32:40.602Z,-1.50
2023-03-01T04:35:10.483Z,-1.50
2023-03-01T04:37:38.242Z,-1.50
2023-03-01T04:40:16.798Z,-1.50
2023-03-01T04:42:45.048Z,-1.50
2023-03-01T04:45:14.787Z,-1.50
2023-03-01T04:47:43.466Z,-1.50
2023-03-01T04:50:14.554Z,-1.40
2023-03-01T04:52:42.904Z,-1.30
2023-03-01T04:55:11.823Z,-1.30
2023-03-01T04:57:39.833Z,-1.30
2023-03-01T05:00:20.783Z,-1.30
2023-03-01T05:02:55.037Z,-1.40
2023-03-01T05:05:28.112Z,-1.50
2023-03-01T05:07:57.350Z,-1.60
2023-03-01T05:10:25.995Z,-1.70
2023-03-01T05:12:54.164Z,-1.90
2023-03-01T05:15:26.315Z,-2.00
2023-03-01T05:17:55.944Z,-2.10
2023-03-01T05:20:25.076Z,-2.20
2023-03-01T05:22:53.369Z,-2.20
2023-03-01T05:25:22.233Z,-2.20
2023-03-01T05:27:50.575Z,-2.10
2023-03-01T05:30:19.464Z,-2.10
2023-03-01T05:32:49.333Z,-2.10
2023-03-01T05:35:19.366Z,-2.10
2023-03-01T05:37:50.153Z,-2.10
2023-03-01T05:40:20.017Z,-2.20
2023-03-01T05:42:49.667Z,-2.20
2023-03-01T05:45:18.891Z,-2.20
2023-03-01T05:47:48.192Z,-2.20
2023-03-01T05:50:20.419Z,-2.20
2023-03-01T05:52:51.028Z,-2.20
2023-03-01T05:55:20.230Z,-2.20
2023-03-01T05:57:48.403Z,-2.20
2023-03-01T06:00:19.582Z,-2.20
2023-03-01T06:02:47.625Z,-2.10
2023-03-01T06:05:16.099Z,-2.10
2023-03-01T06:07:44.808Z,-2.20
2023-03-01T06:10:15.496Z,-2.20
2023-03-01T06:12:44.611Z,-2.30
2023-03-01T06:15:14.847Z,-2.40
2023-03-01T06:17:44.933Z,-2.30
2023-03-01T06:20:15.288Z,-2.30
2023-03-01T06:22:43.127Z,-2.10
2023-03-01T06:25:13.330Z,-2.00
2023-03-01T06:27:43.057Z,-1.90
2023-03-01T06:30:13.044Z,-1.70
2023-03-01T06:32:42.770Z,-1.60
2023-03-01T06:35:11.934Z,-1.50
2023-03-01T06:37:39.905Z,-1.40
2023-03-01T06:40:09.628Z,-1.20
2023-03-01T06:42:37.754Z,-1.20
2023-03-01T06:45:08.881Z,-1.10
2023-03-01T06:47:36.934Z,-1.00
2023-03-01T06:50:05.522Z,-0.90
2023-03-01T06:52:33.611Z,-0.80
2023-03-01T06:55:01.687Z,-0.70
2023-03-01T06:57:29.664Z,-0.60
2023-03-01T06:59:57.521Z,-0.50
2023-03-01T07:02:26.813Z,-0.40
2023-03-01T07:04:54.929Z,-0.30
2023-03-01T07:07:23.321Z,-0.20
2023-03-01T07:09:51.320Z,-0.10
2023-03-01T07:12:19.114Z,0.00
2023-03-01T07:14:46.920Z,0.20
2023-03-01T07:17:14.699Z,0.30
2023-03-01T07:19:43.790Z,0.40
2023-03-01T07:22:11.532Z,0.50
2023-03-01T07:24:39.307Z,0.60
2023-03-01T07:27:07.089Z,0.70
2023-03-01T07:29:37.284Z,0.90
2023-03-01T07:32:05.470Z,1.10
2023-03-01T07:34:33.544Z,1.30
2023-03-01T07:37:02.675Z,1.40
2023-03-01T07:39:30.676Z,1.60
2023-03-01T07:41:58.407Z,1.80
2023-03-01T07:44:26.343Z,2.00
2023-03-01T07:46:57.117Z,2.10
2023-03-01T07:49:27.183Z,3.20
2023-03-01T07:51:55.073Z,2.40
2023-03-01T07:54:24.341Z,2.50
2023-03-01T07:56:52.238Z,2.60
2023-03-01T07:59:20.088Z,2.60
2023-03-01T08:01:48.007Z,2.70
2023-03-01T08:04:15.810Z,2.70
2023-03-01T08:06:43.551Z,2.80
2023-03-01T08:09:11.320Z,2.90
2023-03-01T08:11:40.489Z,2.90
2023-03-01T08:14:08.356Z,3.00
2023-03-01T08:16:36.460Z,3.00
2023-03-01T08:19:06.710Z,3.20
2023-03-01T08:21:35.603Z,3.40
2023-03-01T08:24:03.618Z,3.50
2023-03-01T08:26:32.460Z,3.70
2023-03-01T08:29:02.702Z,3.90
2023-03-01T08:31:33.305Z,4.20
2023-03-01T08:34:04.283Z,4.40
2023-03-01T08:36:34.081Z,4.50
2023-03-01T08:39:02.165Z,4.80
2023-03-01T08:41:30.439Z,5.10
2023-03-01T08:44:00.322Z,5.20
2023-03-01T08:46:31.200Z,5.30
2023-03-01T08:48:59.331Z,5.60
2023-03-01T08:51:28.300Z,7.10
2023-03-01T08:53:56.052Z,8.90
2023-03-01T08:56:23.869Z,11.00
2023-03-01T08:58:52.052Z,12.70
2023-03-01T09:01:21.465Z,14.50
2023-03-01T09:03:50.623Z,15.80
2023-03-01T09:06:18.567Z,16.80
2023-03-01T09:08:47.838Z,18.00
2023-03-01T09:11:17.818Z,18.50
2023-03-01T09:13:46.040Z,19.20
2023-03-01T09:16:15.567Z,19.20
2023-03-01T09:18:43.359Z,19.20
2023-03-01T09:21:14.207Z,19.70
2023-03-01T09:23:43.771Z,20.40
2023-03-01T09:26:12.942Z,20.20
2023-03-01T09:28:41.741Z,20.40
2023-03-01T09:31:09.570Z,21.50
2023-03-01T09:33:37.367Z,22.10
2023-03-01T09:36:07.985Z,23.20
2023-03-01T09:38:37.119Z,23.60
2023-03-01T09:41:11.254Z,23.60
2023-03-01T09:46:17.624Z,24.20
2023-03-01T09:48:51.552Z,25.20
2023-03-01T09:51:23.756Z,25.00
2023-03-01T09:53:55.124Z,25.00
2023-03-01T09:56:29.846Z,25.20
2023-03-01T09:59:04.502Z,25.50
2023-03-01T10:01:36.396Z,25.80
2023-03-01T10:04:21.184Z,26.10
2023-03-01T10:06:59.393Z,25.80
2023-03-01T10:09:31.794Z,25.30
2023-03-01T10:12:00.913Z,24.40
2023-03-01T10:14:35.077Z,25.20
2023-03-01T10:17:05.885Z,25.90
2023-03-01T10:19:38.439Z,26.30
2023-03-01T10:22:13.170Z,25.50
2023-03-01T10:24:42.330Z,25.20
2023-03-01T10:27:16.338Z,25.90
2023-03-01T10:29:52.072Z,26.20
2023-03-01T10:32:24.863Z,26.30
2023-03-01T10:34:52.949Z,26.80
2023-03-01T10:37:25.271Z,26.10
2023-03-01T10:40:06.855Z,24.80
2023-03-01T10:42:37.500Z,24.10
2023-03-01T10:45:28.769Z,23.50
2023-03-01T10:48:06.761Z,23.60
2023-03-01T10:50:34.656Z,23.70
2023-03-01T10:53:06.456Z,23.40
2023-03-01T10:55:37.312Z,23.80
2023-03-01T10:58:17.132Z,23.70
2023-03-01T11:00:52.019Z,23.40
2023-03-01T11:03:23.992Z,23.30
2023-03-01T11:06:01.092Z,23.60
2023-03-01T11:08:37.817Z,24.70
2023-03-01T11:11:26.007Z,25.60
2023-03-01T11:13:59.710Z,26.40
2023-03-01T11:16:31.548Z,27.20
2023-03-01T11:19:17.157Z,27.20
2023-03-01T11:21:54.189Z,26.90
2023-03-01T11:24:25.731Z,25.90
2023-03-01T11:26:56.583Z,25.50
2023-03-01T11:29:37.319Z,24.70
2023-03-01T11:32:12.639Z,24.90
2023-03-01T11:34:49.704Z,24.80
2023-03-01T11:37:25.820Z,24.50
2023-03-01T11:40:02.437Z,24.60
2023-03-01T11:42:44.575Z,24.60
2023-03-01T11:45:14.650Z,25.10
2023-03-01T11:48:01.506Z,26.00
2023-03-01T11:50:37.102Z,26.80
2023-03-01T11:53:29.547Z,27.10
2023-03-01T11:56:10.764Z,27.10
2023-03-01T11:58:56.024Z,27.20
2023-03-01T12:01:34.776Z,27.00
2023-03-01T12:04:28.745Z,26.40
2023-03-01T12:06:59.613Z,26.50
2023-03-01T12:09:46.026Z,26.00
2023-03-01T12:12:29.273Z,25.50
2023-03-01T12:15:28.911Z,25.40
2023-03-01T12:18:47.133Z,25.80
2023-03-01T12:21:24.459Z,26.20
2023-03-01T12:24:16.602Z,25.70
2023-03-01T12:26:55.414Z,25.50
2023-03-01T12:29:28.080Z,25.20
2023-03-01T12:32:23.663Z,25.30
2023-03-01T12:35:06.028Z,25.10
2023-03-01T12:37:51.532Z,25.20
2023-03-01T12:40:55.779Z,25.50
2023-03-01T12:43:36.696Z,24.90
2023-03-01T12:46:25.748Z,23.90
2023-03-01T12:49:04.561Z,23.60
2023-03-01T12:51:35.640Z,23.70
2023-03-01T12:54:13.343Z,23.80
2023-03-01T12:56:41.520Z,23.80
2023-03-01T12:59:17.266Z,23.40
2023-03-01T13:01:54.006Z,23.50
2023-03-01T13:04:48.180Z,23.50
2023-03-01T13:07:27.984Z,23.20
2023-03-01T13:10:07.706Z,23.30
2023-03-01T13:13:04.482Z,23.40
2023-03-01T13:15:36.768Z,23.20
2023-03-01T13:18:26.530Z,22.10
2023-03-01T13:20:58.252Z,21.90
2023-03-01T13:23:29.168Z,21.50
2023-03-01T13:26:06.158Z,21.30
2023-03-01T13:28:43.275Z,21.20
2023-03-01T13:31:14.634Z,20.90
2023-03-01T13:33:47.321Z,20.80
2023-03-01T13:36:50.430Z,20.10
2023-03-01T13:39:40.256Z,19.90
2023-03-01T13:42:37.677Z,19.60
2023-03-01T13:45:15.886Z,19.40
2023-03-01T13:47:44.399Z,19.20
2023-03-01T13:50:21.455Z,18.60
2023-03-01T13:52:58.492Z,18.20
2023-03-01T13:55:31.919Z,17.80
2023-03-01T13:58:03.793Z,17.60
2023-03-01T14:00:36.033Z,17.80
2023-03-01T14:03:10.771Z,17.60
2023-03-01T14:05:39.584Z,17.60
2023-03-01T14:08:21.958Z,17.60
2023-03-01T14:11:18.297Z,17.50
2023-03-01T14:13:58.661Z,17.00
2023-03-01T14:16:41.895Z,16.30
2023-03-01T14:19:31.205Z,15.60
2023-03-01T14:22:06.190Z,14.80
2023-03-01T14:24:39.437Z,13.90
2023-03-01T14:27:13.438Z,13.20
2023-03-01T14:29:42.203Z,12.50
2023-03-01T14:32:19.748Z,12.00
2023-03-01T14:34:49.160Z,11.40
2023-03-01T14:37:23.487Z,10.90
2023-03-01T14:39:53.759Z,10.50
2023-03-01T14:42:24.142Z,10.30
2023-03-01T14:44:54.613Z,10.10
2023-03-01T14:47:28.973Z,9.90
2023-03-01T14:50:01.318Z,9.70
2023-03-01T14:52:36.862Z,9.50
2023-03-01T14:55:09.383Z,9.40
2023-03-01T14:57:37.358Z,9.30
2023-03-01T15:00:09.573Z,9.10
2023-03-01T15:02:39.756Z,9.00
2023-03-01T15:05:09.840Z,8.90
2023-03-01T15:07:41.672Z,8.80
2023-03-01T15:10:21.239Z,8.80
2023-03-01T15:12:49.023Z,8.70
2023-03-01T15:15:36.716Z,8.70
2023-03-01T15:18:08.490Z,8.60
2023-03-01T15:20:39.167Z,8.60
2023-03-01T15:23:07.273Z,8.50
2023-03-01T15:25:36.989Z,8.40
2023-03-01T15:28:05.710Z,8.40
2023-03-01T15:30:38.088Z,8.30
2023-03-01T15:33:29.629Z,8.30
2023-03-01T15:35:58.487Z,8.20
2023-03-01T15:38:32.832Z,8.20
2023-03-01T15:41:03.548Z,8.20
2023-03-01T15:43:43.497Z,8.10
2023-03-01T15:46:20.801Z,8.10
2023-03-01T15:48:51.588Z,8.00
2023-03-01T15:51:19.428Z,8.00
2023-03-01T15:53:54.533Z,8.00
2023-03-01T15:56:23.940Z,7.90
2023-03-01T15:58:51.741Z,7.80
2023-03-01T16:01:19.862Z,7.80
2023-03-01T16:03:47.794Z,7.70
2023-03-01T16:06:15.665Z,7.70
2023-03-01T16:08:43.673Z,7.60
2023-03-01T16:11:22.820Z,7.60
2023-03-01T16:13:51.985Z,7.50
2023-03-01T16:16:19.925Z,7.50
2023-03-01T16:18:48.629Z,7.40
2023-03-01T16:21:20.656Z,7.30
2023-03-01T16:23:48.704Z,7.20
2023-03-01T16:26:19.044Z,7.10
2023-03-01T16:28:48.306Z,7.00
2023-03-01T16:31:20.149Z,6.90
2023-03-01T16:33:50.557Z,6.80
2023-03-01T16:36:20.321Z,6.70
2023-03-01T16:38:49.212Z,6.70
2023-03-01T16:41:18.826Z,6.60
2023-03-01T16:43:48.226Z,6.50
2023-03-01T16:46:19.342Z,6.40
2023-03-01T16:48:48.298Z,6.40
2023-03-01T16:51:16.901Z,6.30
2023-03-01T16:53:47.055Z,6.20
2023-03-01T16:56:16.139Z,6.20
2023-03-01T16:58:44.016Z,6.10
2023-03-01T17:01:14.071Z,6.00
2023-03-01T17:03:44.070Z,6.00
2023-03-01T17:06:16.636Z,5.90
2023-03-01T17:08:44.444Z,5.90
2023-03-01T17:11:14.753Z,5.80
2023-03-01T17:13:43.392Z,5.80
2023-03-01T17:16:13.855Z,5.70
2023-03-01T17:18:43.483Z,5.70
2023-03-01T17:21:12.174Z,5.60
2023-03-01T17:23:42.263Z,5.60
2023-03-01T17:26:10.239Z,5.50
2023-03-01T17:28:39.240Z,5.50
2023-03-01T17:31:08.015Z,5.50
2023-03-01T17:33:36.283Z,5.40
2023-03-01T17:36:06.842Z,5.40
2023-03-01T17:38:36.373Z,5.30
2023-03-01T17:41:04.680Z,5.30
2023-03-01T17:43:34.401Z,5.20
2023-03-01T17:46:04.401Z,5.10
2023-03-01T17:48:32.220Z,5.10
2023-03-01T17:51:00.000Z,5.00
2023-03-01T17:53:29.894Z,5.00
2023-03-01T17:56:02.643Z,5.00
2023-03-01T17:58:30.853Z,4.90
2023-03-01T18:01:08.541Z,4.90
2023-03-01T18:03:36.419Z,4.80
2023-03-01T18:06:04.431Z,4.80
2023-03-01T18:08:33.977Z,4.70
2023-03-01T18:11:01.750Z,4.70
2023-03-01T18:13:29.543Z,4.70
2023-03-01T18:16:00.797Z,4.70
2023-03-01T18:18:28.711Z,4.60
2023-03-01T18:20:57.369Z,4.60
2023-03-01T18:23:25.525Z,4.50
2023-03-01T18:25:59.348Z,4.50
2023-03-01T18:28:27.730Z,4.40
2023-03-01T18:30:59.084Z,4.40
2023-03-01T18:33:27.392Z,4.30
2023-03-01T18:35:55.193Z,4.30
2023-03-01T18:38:23.043Z,4.20
2023-03-01T18:40:53.945Z,4.10
2023-03-01T18:43:21.959Z,4.10
2023-03-01T18:45:49.842Z,4.00
2023-03-01T18:48:18.645Z,3.90
2023-03-01T18:50:46.406Z,3.80
2023-03-01T18:53:14.218Z,3.70
2023-03-01T18:55:42.120Z,3.70
2023-03-01T18:58:11.568Z,3.70
2023-03-01T19:00:39.354Z,3.70
2023-03-01T19:03:07.157Z,3.70
2023-03-01T19:05:34.924Z,3.70
2023-03-01T19:08:02.687Z,3.70
2023-03-01T19:10:31.655Z,3.70
2023-03-01T19:12:59.454Z,3.70
2023-03-01T19:15:28.622Z,3.70
2023-03-01T19:17:57.215Z,3.60
2023-03-01T19:20:25.000Z,3.60
2023-03-01T19:22:52.751Z,3.50
2023-03-01T19:25:20.544Z,3.50
2023-03-01T19:27:48.983Z,3.50
2023-03-01T19:30:17.195Z,3.50
2023-03-01T19:32:46.631Z,3.50
2023-03-01T19:35:14.420Z,3.50
2023-03-01T19:37:42.196Z,3.50
2023-03-01T19:40:11.383Z,3.50
2023-03-01T19:42:39.171Z,3.50
2023-03-01T19:45:08.246Z,3.40
2023-03-01T19:47:36.005Z,3.40
2023-03-01T19:50:05.520Z,3.30
2023-03-01T19:52:33.270Z,3.30
2023-03-01T19:55:09.402Z,3.30
2023-03-01T19:57:37.889Z,3.30
2023-03-01T20:00:06.776Z,3.30
2023-03-01T20:02:34.626Z,3.20
2023-03-01T20:05:02.396Z,3.20
2023-03-01T20:07:31.488Z,3.20
2023-03-01T20:09:59.267Z,3.20
2023-03-01T20:12:27.086Z,3.10
2023-03-01T20:14:56.295Z,3.10
2023-03-01T20:17:24.259Z,3.10
2023-03-01T20:19:52.115Z,3.10
2023-03-01T20:22:20.222Z,3.00
2023-03-01T20:24:49.366Z,3.00
2023-03-01T20:27:17.117Z,3.00
2023-03-01T20:29:45.806Z,3.00
2023-03-01T20:32:13.905Z,2.90
2023-03-01T20:34:41.724Z,2.90
2023-03-01T20:37:09.751Z,2.90
2023-03-01T20:39:37.623Z,2.80
2023-03-01T20:42:07.301Z,2.90
2023-03-01T20:44:35.586Z,2.80
2023-03-01T20:47:03.433Z,2.70
2023-03-01T20:49:31.235Z,2.70
2023-03-01T20:51:59.000Z,2.70
2023-03-01T20:54:27.790Z,2.60
2023-03-01T20:56:55.823Z,2.60
2023-03-01T20:59:25.324Z,2.60
2023-03-01T21:01:53.116Z,2.50
2023-03-01T21:04:21.775Z,2.60
2023-03-01T21:06:49.667Z,2.60
2023-03-01T21:09:18.159Z,2.50
2023-03-01T21:11:45.956Z,2.40
2023-03-01T21:14:13.794Z,2.40
2023-03-01T21:16:45.610Z,2.30
2023-03-01T21:19:13.487Z,2.30
2023-03-01T21:21:41.309Z,2.30
2023-03-01T21:24:10.360Z,2.30
2023-03-01T21:26:39.085Z,2.30
2023-03-01T21:29:06.906Z,2.40
2023-03-01T21:31:36.058Z,2.40
2023-03-01T21:34:07.080Z,2.40
2023-03-01T21:36:36.576Z,2.40
2023-03-01T21:39:06.599Z,2.40
2023-03-01T21:41:36.117Z,2.40
2023-03-01T21:44:06.575Z,2.30
2023-03-01T21:46:36.854Z,2.30
2023-03-01T21:49:07.203Z,2.30
2023-03-01T21:51:36.331Z,2.30
2023-03-01T21:54:04.373Z,2.30
2023-03-01T21:56:34.965Z,2.30
2023-03-01T21:59:03.344Z,2.20
2023-03-01T22:01:31.336Z,2.20
2023-03-01T22:04:01.648Z,2.20
2023-03-01T22:06:34.155Z,2.20
2023-03-01T22:09:05.776Z,2.30
2023-03-01T22:11:34.980Z,2.40
2023-03-01T22:14:04.583Z,2.40
2023-03-01T22:16:34.635Z,2.30
2023-03-01T22:19:03.391Z,2.30
2023-03-01T22:21:32.509Z,2.40
2023-03-01T22:24:00.711Z,2.30
2023-03-01T22:26:31.492Z,2.30
2023-03-01T22:29:01.537Z,2.30
2023-03-01T22:31:29.779Z,2.30
2023-03-01T22:33:58.425Z,2.30
2023-03-01T22:36:26.713Z,2.20
2023-03-01T22:39:00.091Z,2.20
2023-03-01T22:41:29.309Z,2.20
2023-03-01T22:43:57.655Z,2.30
2023-03-01T22:46:26.874Z,2.30
2023-03-01T22:48:55.226Z,2.30
2023-03-01T22:51:25.742Z,2.30
2023-03-01T22:53:55.709Z,2.30
2023-03-01T22:56:28.695Z,2.30
2023-03-01T22:58:57.998Z,2.30
2023-03-01T23:01:26.963Z,2.30
2023-03-01T23:03:54.998Z,2.30
2023-03-01T23:06:23.424Z,2.30
2023-03-01T23:08:52.503Z,2.30
2023-03-01T23:11:22.864Z,2.30
2023-03-01T23:13:51.142Z,2.30
2023-03-01T23:16:19.345Z,2.30
2023-03-01T23:18:47.199Z,2.30
2023-03-01T23:21:17.378Z,2.30
2023-03-01T23:23:46.528Z,2.30
2023-03-01T23:26:14.900Z,2.30
2023-03-01T23:28:44.338Z,2.30
2023-03-01T23:31:14.497Z,2.30
2023-03-01T23:33:44.398Z,2.30
2023-03-01T23:36:20.426Z,2.30
2023-03-01T23:38:49.104Z,2.20
2023-03-01T23:41:20.192Z,2.20
2023-03-01T23:43:50.981Z,2.20
2023-03-01T23:46:21.164Z,2.20
2023-03-01T23:48:49.676Z,2.10
2023-03-01T23:51:18.993Z,2.20
2023-03-01T23:53:54.267Z,2.10
2023-03-01T23:56:26.596Z,2.10
2023-03-01T23:58:57.870Z,2.10
